Latest Weather Observations for Cape Grim

IDT60801

Issued at 4:05 am EST Monday 22 September 2014 (issued every 30 minutes, with the page automatically refreshed every 10 minutes)

About weather observations | Map of weather stations | Latest weather observations for TAS | Other Formats
Station Details ID: 091331 Name: CAPE GRIM Lat: -40.68 Lon: 144.69 Height: 86.0 m
Data from the previous 72 hours. | See also: Recent months at Cape Grim
Date/Time
EST
Temp
°C
App
Temp
°C
Dew
Point
Rel
Hum
%
Delta-T
°C
Wind Press
QNH
hPa
Press
MSL
hPa
Rain
since 9 am
mm
Dir
 
Spd
km/h
Gust
km/h
Spd
kts
Gust
kts
22/04:00am 10.5 7.5 7.6 82 1.4 W 13 15 7 8 1027.7 1027.8 0.0
22/03:30am 10.7 8.1 7.8 82 1.4 W 11 13 6 7 1027.5 1027.6 0.0
22/03:00am 11.0 8.5 8.0 82 1.5 W 11 15 6 8 1027.5 1027.6 0.0
22/02:30am 10.3 8.4 7.7 84 1.3 SW 7 9 4 5 1027.5 1027.6 0.0
22/02:00am 10.5 7.9 7.9 84 1.3 SW 11 15 6 8 1027.5 1027.6 0.0
22/01:30am 10.6 7.6 7.7 82 1.4 SW 13 17 7 9 1027.8 1027.9 0.0
22/01:00am 10.7 7.0 7.9 83 1.4 SW 17 20 9 11 1028.2 1028.3 0.0
22/12:30am 10.4 7.4 7.8 84 1.3 SSW 13 17 7 9 1028.4 1028.5 0.0
22/12:00am 10.5 7.1 7.7 83 1.3 S 15 19 8 10 1028.5 1028.6 0.0
 
Date/Time
EST
Temp
°C
App
Temp
°C
Dew
Point
Rel
Hum
%
Delta-T
°C
Wind Press
QNH
hPa
Press
MSL
hPa
Rain
since 9 am
mm
Dir
 
Spd
km/h
Gust
km/h
Spd
kts
Gust
kts
21/11:30pm 11.2 7.0 7.5 78 1.8 SW 19 26 10 14 1028.7 1028.8 0.0
21/11:00pm 11.3 6.5 7.4 77 1.9 SW 22 32 12 17 1029.0 1029.1 0.0
21/10:30pm 11.3 6.9 7.6 78 1.8 SSW 20 30 11 16 1029.0 1029.1 0.0
21/10:00pm 11.3 7.1 7.6 78 1.8 S 19 24 10 13 1029.3 1029.5 0.0
21/09:30pm 11.4 7.2 8.4 82 1.5 SW 20 26 11 14 1029.3 1029.5 0.0
21/09:00pm 11.6 7.7 8.5 81 1.5 SW 19 26 10 14 1029.3 1029.5 0.0
21/08:30pm 11.7 8.2 8.7 82 1.5 SW 17 24 9 13 1029.5 1029.7 0.0
21/08:00pm 11.5 7.7 8.9 84 1.3 SSW 19 24 10 13 1029.6 1029.8 0.0
21/07:30pm 11.7 7.9 8.9 83 1.4 SSW 19 24 10 13 1029.6 1029.8 0.0
21/07:00pm 12.0 7.2 8.8 81 1.6 SW 24 33 13 18 1029.4 1029.6 0.0
21/06:30pm 12.1 6.6 9.1 82 1.5 SW 28 35 15 19 1029.3 1029.5 0.0
21/06:00pm 12.0 6.0 8.8 81 1.6 SW 30 41 16 22 1029.1 1029.3 0.0
21/05:30pm 12.1 5.6 9.1 82 1.5 SW 33 41 18 22 1029.0 1029.1 0.0
21/05:00pm 12.2 5.4 9.2 82 1.5 SW 35 43 19 23 1028.8 1028.9 0.0
21/04:30pm 13.1 6.8 9.7 80 1.7 SW 33 43 18 23 1028.8 1028.9 0.0
21/04:00pm 12.8 7.2 8.9 77 2.0 SW 28 37 15 20 1029.0 1029.1 0.0
21/03:30pm 13.2 6.1 9.6 79 1.8 SW 37 44 20 24 1029.0 1029.1 0.0
21/03:00pm 12.9 5.8 9.4 79 1.8 SW 37 44 20 24 1029.0 1029.1 0.0
21/02:30pm 13.3 6.4 8.8 74 2.3 SW 35 43 19 23 1029.3 1029.5 0.0
21/02:00pm 13.7 7.3 9.2 74 2.3 SW 33 41 18 22 1029.4 1029.6 0.0
21/01:30pm 13.4 6.6 9.1 75 2.2 SW 35 43 19 23 1029.8 1029.9 0.0
21/01:00pm 13.4 7.1 9.8 79 1.8 SW 33 39 18 21 1029.8 1029.9 0.0
21/12:30pm 12.8 6.5 9.8 82 1.5 SW 33 39 18 21 1029.9 1030.0 0.0
21/12:00pm 12.0 5.2 9.4 84 1.3 SW 35 46 19 25 1030.3 1030.4 0.0
21/11:30am 11.5 5.1 9.4 87 1.1 SW 33 44 18 24 1030.4 1030.5 0.0
21/11:04am 11.5 5.1 9.4 87 1.1 SW 33 43 18 23 1030.5 1030.6 0.0
21/11:00am 11.5 4.7 9.2 86 1.1 SW 35 44 19 24 1030.5 1030.6 0.0
21/10:49am 11.8 5.0 9.2 84 1.3 SW 35 44 19 24 1030.5 1030.6 0.0
21/10:30am 12.5 6.0 10.2 86 1.2 SW 35 46 19 25 1030.6 1030.7 0.0
21/10:00am 11.9 6.3 10.0 88 1.0 SSW 30 39 16 21 1030.6 1030.7 0.0
21/09:30am 12.8 5.6 9.1 78 1.9 SW 37 46 20 25 1030.6 1030.7 0.0
21/09:00am 12.6 5.1 8.1 74 2.2 SW 37 46 20 25 1030.4 1030.5 0.0
21/08:30am 12.5 5.5 8.4 76 2.0 SW 35 44 19 24 1030.3 1030.4 0.0
21/08:00am 12.3 4.9 8.4 77 1.9 SW 37 46 20 25 1030.0 1030.1 0.0
21/07:30am 12.1 4.2 8.0 76 2.0 SW 39 48 21 26 1029.8 1029.9 0.0
21/07:00am 11.9 4.7 7.6 75 2.1 SW 35 44 19 24 1029.4 1029.6 0.0
21/06:30am 11.5 5.2 7.2 75 2.1 SW 30 39 16 21 1029.2 1029.4 0.0
21/06:00am 11.5 4.5 6.8 73 2.2 SW 33 41 18 22 1028.9 1029.0 0.0
21/05:30am 11.5 4.1 6.6 72 2.3 SW 35 44 19 24 1028.6 1028.7 0.0
21/05:00am 11.7 3.1 6.4 70 2.5 SW 41 50 22 27 1028.5 1028.6 0.0
21/04:30am 11.7 4.1 5.6 66 2.8 SW 35 50 19 27 1028.4 1028.5 0.0
21/04:00am 11.7 4.5 5.8 67 2.7 SW 33 46 18 25 1028.2 1028.3 0.0
21/03:30am 11.8 3.9 6.3 69 2.6 SW 37 48 20 26 1028.2 1028.3 0.0
21/03:00am 11.7 3.9 4.9 63 3.1 SW 35 48 19 26 1028.3 1028.4 0.0
21/02:30am 11.5 3.8 5.4 66 2.8 SW 35 50 19 27 1028.3 1028.4 0.0
21/02:00am 11.7 4.6 6.6 71 2.4 SW 33 43 18 23 1028.7 1028.8 0.0
21/01:30am 11.5 4.8 5.6 67 2.7 SW 30 37 16 20 1028.9 1029.0 0.0
21/01:00am 11.4 3.0 5.7 68 2.6 SW 39 46 21 25 1029.2 1029.4 0.0
21/12:30am 11.6 3.1 5.0 64 3.0 SW 39 50 21 27 1029.0 1029.1 0.0
21/12:00am 11.9 3.6 6.2 68 2.7 SW 39 48 21 26 1028.8 1028.9 0.0
 
Date/Time
EST
Temp
°C
App
Temp
°C
Dew
Point
Rel
Hum
%
Delta-T
°C
Wind Press
QNH
hPa
Press
MSL
hPa
Rain
since 9 am
mm
Dir
 
Spd
km/h
Gust
km/h
Spd
kts
Gust
kts
20/11:30pm 11.6 5.1 6.7 72 2.3 SW 30 41 16 22 1029.0 1029.1 0.0
20/11:00pm 11.6 4.8 6.7 72 2.3 SW 32 39 17 21 1029.3 1029.5 0.0
20/10:30pm 11.6 4.6 6.1 69 2.6 SW 32 39 17 21 1029.5 1029.7 0.0
20/10:00pm 11.6 3.9 5.5 66 2.8 SW 35 43 19 23 1029.6 1029.8 0.0
20/09:30pm 11.4 3.7 5.5 67 2.7 SW 35 43 19 23 1029.4 1029.6 0.0
20/09:00pm 11.6 5.1 6.5 71 2.4 SW 30 39 16 21 1029.3 1029.5 0.0
20/08:30pm 11.4 5.5 5.7 68 2.7 SSW 26 39 14 21 1029.4 1029.6 0.0
20/08:00pm 11.2 4.4 5.1 66 2.8 SW 30 41 16 22 1029.2 1029.4 0.0
20/07:30pm 10.5 6.1 7.2 80 1.6 SSW 20 30 11 16 1028.8 1028.9 0.0
20/07:00pm 10.4 5.9 7.1 80 1.6 SSW 20 26 11 14 1028.5 1028.6 0.0
20/06:30pm 10.9 4.2 7.2 78 1.8 SW 32 43 17 23 1028.2 1028.3 0.0
20/06:00pm 11.0 2.8 8.0 82 1.5 SW 41 56 22 30 1028.1 1028.2 0.0
20/05:30pm 11.4 4.9 6.5 72 2.3 SSW 30 41 16 22 1027.7 1027.8 0.0
20/05:00pm 11.4 4.3 6.3 71 2.4 SW 33 44 18 24 1027.4 1027.5 0.0
20/04:30pm 11.5 3.6 6.2 70 2.5 SW 37 48 20 26 1027.4 1027.5 0.0
20/04:00pm 11.6 3.3 6.3 70 2.5 SW 39 50 21 27 1027.2 1027.3 0.0
20/03:30pm 11.5 3.4 7.0 74 2.2 SW 39 50 21 27 1027.2 1027.3 0.0
20/03:00pm 11.6 4.7 7.3 75 2.1 SW 33 43 18 23 1027.2 1027.3 0.0
20/02:30pm 11.8 4.5 7.1 73 2.3 SW 35 46 19 25 1027.2 1027.3 0.0
20/02:00pm 11.3 4.8 8.0 80 1.6 SW 32 46 17 25 1027.0 1027.1 0.0
20/01:30pm 11.4 5.3 8.3 81 1.5 SSW 30 41 16 22 1027.1 1027.2 0.0
20/01:00pm 11.2 4.6 7.9 80 1.6 SSW 32 43 17 23 1027.0 1027.1 0.0
20/12:30pm 11.5 4.9 7.8 78 1.8 SW 32 41 17 22 1027.1 1027.2 0.0
20/12:00pm 11.1 3.5 7.4 78 1.8 SW 37 44 20 24 1027.4 1027.5 0.0
20/11:30am 11.4 4.5 7.1 75 2.1 SW 33 41 18 22 1027.2 1027.3 0.0
20/11:00am 11.0 3.8 7.5 79 1.7 SW 35 43 19 23 1027.2 1027.3 0.0
20/10:30am 11.4 5.2 6.3 71 2.4 SW 28 39 15 21 1027.2 1027.3 0.0
20/10:00am 10.9 4.4 6.6 75 2.0 SSW 30 41 16 22 1027.3 1027.4 0.0
20/09:30am 10.9 3.9 6.1 72 2.2 SW 32 43 17 23 1027.2 1027.3 0.0
20/09:00am 10.5 5.3 7.2 80 1.6 SSW 24 33 13 18 1027.1 1027.2 1.8
20/08:34am 10.6 4.6 6.9 78 1.8 SW 28 46 15 25 1027.0 1027.1 1.8
20/08:30am 10.5 4.5 7.2 80 1.6 SW 28 41 15 22 1027.0 1027.1 1.8
20/08:00am 10.2 4.4 8.0 86 1.1 SSW 28 46 15 25 1026.6 1026.7 1.8
20/07:44am 10.0 3.9 8.4 90 0.8 SSW 30 41 16 22 1026.4 1026.5 1.8
20/07:34am 9.6 4.2 8.0 90 0.8 SSW 26 39 14 21 1026.4 1026.5 1.8
20/07:30am 9.6 4.2 8.0 90 0.8 SSW 26 35 14 19 1026.4 1026.5 1.6
20/07:00am 9.8 2.6 7.6 86 1.0 SW 35 44 19 24 1025.9 1026.0 1.0
20/06:30am 9.7 4.8 8.3 91 0.7 SSW 24 35 13 19 1025.6 1025.7 1.0
20/06:00am 9.8 4.0 7.9 88 0.9 SW 28 43 15 23 1025.0 1025.1 1.0
20/05:34am 9.8 2.7 8.1 89 0.8 SSW 35 54 19 29 1024.6 1024.7 1.0
20/05:30am 9.7 1.8 8.0 89 0.8 SW 39 54 21 29 1024.5 1024.6 1.0
20/05:00am 10.3 3.3 8.4 88 0.9 SW 35 46 19 25 1024.2 1024.3 1.0
20/04:30am 10.4 1.6 7.1 80 1.6 SW 43 52 23 28 1023.9 1024.0 1.0
20/04:00am 10.6 2.6 7.5 81 1.5 SW 39 48 21 26 1023.7 1023.8 1.0
20/03:30am 10.2 2.0 8.0 86 1.1 SW 41 48 22 26 1023.6 1023.7 1.0
20/03:00am 10.3 2.0 7.9 85 1.2 SW 41 48 22 26 1023.5 1023.6 1.0
20/02:30am 10.5 2.6 7.9 84 1.3 SW 39 50 21 27 1023.3 1023.4 1.0
20/02:00am 10.0 2.2 8.3 89 0.8 SW 39 46 21 25 1023.4 1023.5 1.0
20/01:38am 10.2 3.2 8.5 89 0.8 SW 35 57 19 31 1023.4 1023.5 1.0
20/01:30am 10.3 3.9 8.4 88 0.9 SW 32 44 17 24 1023.5 1023.6 1.0
20/01:00am 10.6 3.2 8.5 87 1.0 SW 37 46 20 25 1023.6 1023.7 1.0
20/12:30am 10.2 1.7 8.5 89 0.8 SW 43 52 23 28 1023.4 1023.5 1.0
20/12:00am 10.4 2.6 8.3 87 1.0 SW 39 48 21 26 1023.3 1023.4 1.0
 
Date/Time
EST
Temp
°C
App
Temp
°C
Dew
Point
Rel
Hum
%
Delta-T
°C
Wind Press
QNH
hPa
Press
MSL
hPa
Rain
since 9 am
mm
Dir
 
Spd
km/h
Gust
km/h
Spd
kts
Gust
kts
19/11:40pm 10.3 1.7 8.2 87 1.0 SW 43 61 23 33 1023.3 1023.4 1.0
19/11:30pm 10.8 3.1 8.6 86 1.1 SW 39 50 21 27 1023.3 1023.4 1.0
19/11:24pm 10.8 3.5 8.6 86 1.1 SW 37 46 20 25 1023.3 1023.4 1.0
19/11:00pm 10.6 3.2 8.5 87 1.0 SW 37 50 20 27 1023.4 1023.5 1.0
19/10:30pm 10.5 2.3 8.4 87 1.0 SW 41 54 22 29 1023.4 1023.5 1.0
19/10:00pm 10.9 2.0 7.6 80 1.6 SW 44 54 24 29 1023.5 1023.6 1.0
19/09:30pm 10.9 3.0 8.0 82 1.4 SW 39 48 21 26 1023.3 1023.4 0.8
19/09:00pm 11.0 1.7 7.7 80 1.6 SW 46 56 25 30 1023.2 1023.3 0.2
19/08:30pm 10.9 2.2 7.8 81 1.5 SW 43 52 23 28 1023.0 1023.1 0.2
19/08:00pm 10.9 1.8 8.3 84 1.3 SW 46 57 25 31 1022.8 1022.9 0.2
19/07:30pm 10.3 0.8 8.4 88 0.9 SW 48 59 26 32 1022.7 1022.8 0.2
19/07:17pm 10.3 1.7 8.2 87 1.0 SW 43 65 23 35 1022.6 1022.7 0.2
19/07:00pm 11.0 1.8 7.9 81 1.5 SW 46 56 25 30 1022.4 1022.5 0.2
19/06:30pm 10.5 1.3 8.1 85 1.2 SW 46 59 25 32 1022.1 1022.2 0.2
19/06:03pm 10.2 0.6 8.1 87 1.0 SW 48 67 26 36 1021.9 1022.0 0.2
19/06:00pm 10.0 -0.4 7.9 87 1.0 SW 52 67 28 36 1021.8 1021.9 0.2
19/05:53pm 10.9 1.4 8.5 85 1.2 SW 48 67 26 36 1021.8 1021.9 0.2
19/05:30pm 10.8 1.8 8.9 88 0.9 SW 46 57 25 31 1021.8 1021.9 0.2
19/05:00pm 10.9 1.9 8.7 86 1.1 SW 46 57 25 31 1021.6 1021.7 0.2
19/04:42pm 11.2 3.8 8.2 82 1.5 SW 37 57 20 31 1021.6 1021.7 0.2
19/04:30pm 11.3 3.5 8.3 82 1.5 SW 39 54 21 29 1021.6 1021.7 0.2
19/04:09pm 11.3 3.1 8.2 81 1.5 SW 41 59 22 32 1021.4 1021.5 0.2
19/04:00pm 11.7 2.9 8.0 78 1.8 SW 44 57 24 31 1021.4 1021.5 0.2
19/03:30pm 11.8 3.0 8.1 78 1.8 SW 44 57 24 31 1021.3 1021.4 0.2
19/03:12pm 12.1 3.9 8.4 78 1.8 SW 41 63 22 34 1021.2 1021.3 0.2
19/03:00pm 12.0 3.2 8.1 77 1.9 SW 44 56 24 30 1021.1 1021.2 0.2
19/02:30pm 11.9 3.2 7.6 75 2.1 SW 43 57 23 31 1021.1 1021.2 0.2
19/02:00pm 11.9 2.2 7.6 75 2.1 SW 48 59 26 32 1020.9 1021.0 0.2
19/01:30pm 12.0 2.8 8.1 77 1.9 SW 46 61 25 33 1020.8 1020.9 0.2
19/01:09pm 12.1 2.2 8.4 78 1.8 SW 50 69 27 37 1020.7 1020.8 0.2
19/01:00pm 11.9 0.6 7.8 76 2.0 SW 57 69 31 37 1020.7 1020.8 0.2
19/12:30pm 11.4 0.1 7.9 79 1.7 SW 57 69 31 37 1021.0 1021.1 0.2
19/12:00pm 11.3 1.7 8.0 80 1.6 SW 48 63 26 34 1021.2 1021.3 0.2
19/11:37am 11.3 3.0 7.8 79 1.7 SW 41 59 22 32 1021.4 1021.5 0.2
19/11:30am 11.5 2.9 8.2 80 1.6 SW 43 56 23 30 1021.4 1021.5 0.2
19/11:00am 11.2 2.0 8.2 82 1.5 SW 46 57 25 31 1021.7 1021.8 0.2
19/10:30am 10.6 1.2 8.7 88 0.9 SW 48 70 26 38 1022.0 1022.1 0.0
19/10:28am 10.4 0.1 8.3 87 1.0 SW 52 70 28 38 1022.0 1022.1 0.0
19/10:20am 11.0 -0.2 7.7 80 1.6 SW 56 67 30 36 1021.9 1022.0 0.0
19/10:00am 11.5 5.0 8.2 80 1.6 SW 32 50 17 27 1022.1 1022.2 0.0
19/09:30am 10.7 3.9 7.9 83 1.4 SW 33 52 18 28 1022.1 1022.2 0.0
19/09:15am 10.9 2.1 8.1 83 1.4 SW 44 63 24 34 1022.1 1022.2 0.0
19/09:00am 10.7 1.5 8.1 84 1.3 SW 46 57 25 31 1022.2 1022.3 1.2
19/08:30am 10.5 4.3 7.7 83 1.4 WSW 30 50 16 27 1022.0 1022.1 0.8
19/08:11am 10.8 3.6 7.7 81 1.5 SW 35 63 19 34 1021.9 1022.0 0.8
19/08:00am 11.0 3.7 7.3 78 1.8 SW 35 48 19 26 1021.9 1022.0 0.8
19/07:40am 10.2 2.9 7.1 81 1.5 SW 35 56 19 30 1021.8 1021.9 0.8
19/07:30am 10.4 2.7 7.3 81 1.5 SW 37 48 20 26 1021.7 1021.8 0.8
19/07:17am 10.1 2.3 6.8 80 1.6 SW 37 44 20 24 1021.6 1021.7 0.8
19/07:02am 10.1 -1.4 7.2 82 1.4 SW 57 63 31 34 1021.5 1021.6 0.8
19/07:00am 10.8 2.8 7.3 79 1.7 SW 39 65 21 35 1021.4 1021.5 0.8
19/06:30am 9.8 2.2 7.6 86 1.1 SW 37 50 20 27 1021.2 1021.3 0.8
19/06:00am 10.9 1.6 7.4 79 1.7 SW 46 65 25 35 1020.9 1021.0 0.6
19/05:30am 9.7 1.0 7.5 86 1.1 SW 43 65 23 35 1020.7 1020.8 0.6
19/05:00am 11.2 4.2 6.9 75 2.0 SW 33 56 18 30 1020.4 1020.5 0.4
19/04:33am 11.0 2.8 6.6 74 2.1 SW 39 61 21 33 1020.4 1020.5 0.4
19/04:30am 11.0 2.9 6.9 76 2.0 SW 39 56 21 30 1020.4 1020.5 0.4

Other Formats:

Comma delimited format used in spreadsheet applications
http://www.bom.gov.au/fwo/IDT60801/IDT60801.95954.axf

JavaScript Object Notation format (JSON) in row-major order
http://www.bom.gov.au/fwo/IDT60801/IDT60801.95954.json